Terminal Aerodrome Forecast
Issued by NWS

Home | Current Version | Previous Version | Text Only | Print | Product List | Glossary On
Versions: 1 2 3 4 5 6 7 8 9 10 11 12 13 14 15 16 17
000
FTUS43 KICT 251441 AAA
TAFSLN
TAF AMD
KSLN 251441Z 2515/2612 17010G18KT P6SM SCT025 BKN040
      TEMPO 2516/2517 BKN025
     FM251900 18012G20KT P6SM SCT200
     FM260700 17008KT P6SM SCT150=

USA.gov is the U.S. government's official web portal to all federal, state and local government web resources and services.